Time;durP1;ratioP1;P1;durP2;ratioP2;P2;SDS_P1;SDS_P2;PMS_P1;PMS_P2;Temp;Humidity;BMP_temperature;BMP_pressure;BME280_temperature;BME280_humidity;BME280_pressure;Samples;Min_cycle;Max_cycle;Signal;HPM_P1;HPM_P2
2022/07/28 00:01:40;;;;;;;1.45;0.82;;;26.40;40.30;;;;;;5058012;28;20032;-42
2022/07/28 00:04:06;;;;;;;1.63;0.98;;;26.40;40.20;;;;;;5051126;28;20025;-43
2022/07/28 00:06:32;;;;;;;4.45;1.63;;;26.40;40.10;;;;;;5052275;28;20108;-42
2022/07/28 00:08:57;;;;;;;2.42;0.88;;;26.40;40.10;;;;;;5055957;28;20095;-49
2022/07/28 00:11:23;;;;;;;3.03;1.00;;;26.40;40.10;;;;;;5056236;28;20460;-42
2022/07/28 00:13:48;;;;;;;1.83;0.88;;;26.40;39.90;;;;;;5055809;28;20091;-54
2022/07/28 00:16:14;;;;;;;1.50;0.80;;;26.30;39.80;;;;;;5066016;28;20035;-42
2022/07/28 00:18:40;;;;;;;4.82;1.48;;;26.30;39.80;;;;;;5057030;28;20083;-42
2022/07/28 00:21:06;;;;;;;3.30;0.80;;;26.30;39.80;;;;;;5063537;28;20503;-42
2022/07/28 00:23:31;;;;;;;2.85;0.88;;;26.40;39.80;;;;;;5056188;28;20035;-42
2022/07/28 00:25:57;;;;;;;1.17;0.75;;;26.30;39.80;;;;;;5054716;28;20065;-44
2022/07/28 00:28:22;;;;;;;2.25;1.23;;;26.30;39.80;;;;;;5059534;28;20063;-43
2022/07/28 00:30:48;;;;;;;3.13;0.90;;;26.30;39.90;;;;;;5055129;28;20029;-52
2022/07/28 00:33:14;;;;;;;1.95;0.90;;;26.30;40.10;;;;;;5055739;28;20021;-42
2022/07/28 00:35:39;;;;;;;2.15;0.90;;;26.30;40.10;;;;;;5060048;28;20028;-44
2022/07/28 00:38:05;;;;;;;2.17;0.82;;;26.30;40.20;;;;;;5052696;28;20036;-43
2022/07/28 00:43:15;;;;;;;1.88;1.00;;;26.30;40.40;;;;;;5053750;28;20083;-42
2022/07/28 00:45:41;;;;;;;1.85;0.95;;;26.30;40.50;;;;;;5052569;28;20033;-42
2022/07/28 00:48:06;;;;;;;2.42;1.13;;;26.30;40.50;;;;;;5051883;28;20033;-42
2022/07/28 00:50:32;;;;;;;2.78;0.90;;;26.30;40.70;;;;;;5034508;28;20024;-42
2022/07/28 00:52:59;;;;;;;1.25;0.73;;;26.30;40.70;;;;;;5053876;28;20105;-44
2022/07/28 00:55:24;;;;;;;1.70;0.77;;;26.20;40.70;;;;;;5053021;28;20041;-42
2022/07/28 00:57:50;;;;;;;1.23;0.70;;;26.20;40.60;;;;;;5049958;28;20052;-53
2022/07/28 01:00:16;;;;;;;3.60;1.00;;;26.20;40.70;;;;;;5050784;28;20068;-42
2022/07/28 01:02:45;;;;;;;2.97;1.48;;;26.20;40.70;;;;;;5051158;28;20029;-42
2022/07/28 01:05:13;;;;;;;2.88;1.10;;;26.10;40.80;;;;;;5050194;28;20025;-48
2022/07/28 01:07:53;;;;;;;1.83;1.00;;;26.20;40.90;;;;;;5054829;28;20041;-43
2022/07/28 01:10:35;;;;;;;2.17;1.10;;;26.10;40.70;;;;;;5026809;28;20513;-42
2022/07/28 01:13:12;;;;;;;3.25;0.90;;;26.10;40.80;;;;;;5031708;28;20148;-42
2022/07/28 01:15:49;;;;;;;3.67;1.30;;;26.10;40.80;;;;;;5033933;28;20087;-44
2022/07/28 01:18:20;;;;;;;3.30;1.13;;;26.10;40.70;;;;;;5035013;28;20111;-42
2022/07/28 01:20:55;;;;;;;5.68;1.42;;;26.10;40.80;;;;;;5031236;28;20053;-43
2022/07/28 01:23:32;;;;;;;3.05;0.80;;;26.10;40.80;;;;;;5034153;28;20394;-45
2022/07/28 01:26:48;;;;;;;1.85;1.05;;;26.00;40.80;;;;;;5032380;28;20127;-45
2022/07/28 01:29:28;;;;;;;1.45;0.98;;;26.00;40.90;;;;;;4990578;28;20033;-43
2022/07/28 01:32:17;;;;;;;1.85;1.20;;;26.00;40.90;;;;;;5029147;28;20025;-50
2022/07/28 01:35:18;;;;;;;1.95;0.93;;;26.00;40.80;;;;;;5028509;28;20033;-42
2022/07/28 01:37:47;;;;;;;1.23;0.88;;;26.10;40.90;;;;;;5028349;28;20038;-44
2022/07/28 01:40:18;;;;;;;2.50;0.75;;;26.00;40.70;;;;;;5034369;28;20033;-47
2022/07/28 01:42:47;;;;;;;1.70;0.80;;;26.00;40.80;;;;;;5039285;28;20021;-44
2022/07/28 01:45:15;;;;;;;2.78;1.08;;;25.90;41.00;;;;;;5034234;28;20036;-46
2022/07/28 01:47:44;;;;;;;2.55;1.05;;;25.90;41.00;;;;;;5028258;28;20033;-43
2022/07/28 01:50:12;;;;;;;3.33;1.23;;;26.00;41.10;;;;;;5032462;28;20032;-43
2022/07/28 01:52:40;;;;;;;1.50;0.90;;;25.90;41.00;;;;;;5034868;28;20040;-43
2022/07/28 01:55:07;;;;;;;5.18;1.38;;;25.80;41.10;;;;;;5035298;28;20172;-43
2022/07/28 01:57:35;;;;;;;3.05;1.10;;;25.80;41.10;;;;;;5036363;28;20397;-43
2022/07/28 02:00:01;;;;;;;1.08;0.80;;;25.80;41.20;;;;;;5028404;28;20029;-43
2022/07/28 02:02:28;;;;;;;1.45;0.95;;;25.80;41.20;;;;;;5029375;28;20557;-45
2022/07/28 02:04:57;;;;;;;1.58;1.13;;;25.80;41.10;;;;;;5029089;28;20037;-43
2022/07/28 02:07:25;;;;;;;2.25;1.17;;;25.80;41.00;;;;;;5028351;28;20103;-44
2022/07/28 02:09:51;;;;;;;1.50;1.00;;;25.80;41.10;;;;;;5046618;28;20084;-54
2022/07/28 02:12:18;;;;;;;3.08;1.00;;;25.80;41.10;;;;;;5050481;28;20064;-42
2022/07/28 02:14:49;;;;;;;2.33;0.80;;;25.80;41.20;;;;;;5050323;28;20024;-44
2022/07/28 02:17:19;;;;;;;3.53;1.02;;;25.80;41.20;;;;;;5032075;28;20036;-44
2022/07/28 02:19:47;;;;;;;3.38;1.05;;;25.80;41.20;;;;;;5050937;28;20040;-43
2022/07/28 02:22:13;;;;;;;2.22;0.85;;;25.80;41.20;;;;;;5048865;28;20041;-41
2022/07/28 02:24:42;;;;;;;1.83;0.80;;;25.80;41.10;;;;;;5050591;28;20536;-41
2022/07/28 02:27:10;;;;;;;2.90;0.98;;;25.80;41.20;;;;;;5049823;28;20033;-41
2022/07/28 02:29:43;;;;;;;2.70;1.10;;;25.80;41.20;;;;;;5049664;28;20095;-42
2022/07/28 02:32:26;;;;;;;2.13;0.90;;;25.80;41.20;;;;;;5049179;28;20170;-42
2022/07/28 02:34:54;;;;;;;3.80;1.02;;;25.80;41.20;;;;;;5049697;28;20338;-42
2022/07/28 02:37:21;;;;;;;3.63;1.42;;;25.80;41.20;;;;;;5050124;28;20049;-46
2022/07/28 02:39:54;;;;;;;3.10;1.40;;;25.80;41.20;;;;;;5049734;28;20032;-53
2022/07/28 02:42:25;;;;;;;2.28;0.90;;;25.80;41.30;;;;;;5050610;28;20021;-42
2022/07/28 02:44:57;;;;;;;3.55;1.20;;;25.80;41.20;;;;;;5049005;28;20071;-53
2022/07/28 02:47:27;;;;;;;3.53;1.00;;;25.80;41.30;;;;;;5049729;28;20025;-52
2022/07/28 02:49:55;;;;;;;1.83;0.90;;;25.80;41.20;;;;;;5048268;28;20055;-43
2022/07/28 02:52:24;;;;;;;2.25;1.17;;;25.80;41.30;;;;;;5050388;28;20036;-42
2022/07/28 02:54:51;;;;;;;5.00;1.15;;;25.80;41.30;;;;;;5049175;28;20392;-53
2022/07/28 02:57:18;;;;;;;4.78;1.20;;;25.70;41.20;;;;;;5049907;28;20429;-42
2022/07/28 02:59:44;;;;;;;1.83;0.90;;;25.80;41.40;;;;;;5051410;28;20116;-42
2022/07/28 03:02:11;;;;;;;2.70;1.30;;;25.80;41.40;;;;;;5048926;28;20024;-42
2022/07/28 03:07:34;;;;;;;2.45;1.00;;;25.80;41.30;;;;;;5048452;28;20032;-44
2022/07/28 03:10:01;;;;;;;2.17;1.20;;;25.80;41.40;;;;;;5048722;28;20494;-42
2022/07/28 03:12:26;;;;;;;1.77;1.08;;;25.80;42.10;;;;;;5049493;28;20087;-43
2022/07/28 03:14:53;;;;;;;3.85;1.23;;;25.80;41.50;;;;;;5049985;28;20465;-43
2022/07/28 03:17:18;;;;;;;3.17;1.20;;;25.70;41.30;;;;;;5053334;28;20401;-42
2022/07/28 03:19:44;;;;;;;2.42;0.88;;;25.70;41.40;;;;;;5053378;28;20033;-42
2022/07/28 03:22:10;;;;;;;2.55;1.00;;;25.70;41.30;;;;;;5052698;28;20059;-47
2022/07/28 03:24:39;;;;;;;2.67;1.55;;;25.80;41.40;;;;;;5053795;28;20060;-43
2022/07/28 03:27:24;;;;;;;2.45;1.42;;;25.70;41.30;;;;;;5051851;28;20025;-42
2022/07/28 03:30:01;;;;;;;2.75;0.95;;;25.70;41.40;;;;;;5051981;28;20043;-52
2022/07/28 03:32:30;;;;;;;3.58;1.20;;;25.70;41.40;;;;;;5046900;28;20404;-42
2022/07/28 03:34:56;;;;;;;2.53;1.30;;;25.70;41.50;;;;;;5052481;28;20095;-42
2022/07/28 03:37:37;;;;;;;3.50;1.00;;;25.70;41.50;;;;;;5053187;28;20032;-43
2022/07/28 03:40:06;;;;;;;4.15;1.30;;;25.70;41.50;;;;;;5051530;28;20056;-42
2022/07/28 03:42:33;;;;;;;2.15;0.90;;;25.70;41.50;;;;;;5052698;28;20033;-42
2022/07/28 03:44:59;;;;;;;2.88;1.52;;;25.70;41.50;;;;;;5051778;28;20028;-42
2022/07/28 03:47:25;;;;;;;3.40;1.30;;;25.70;41.60;;;;;;5052465;28;20059;-43
2022/07/28 03:49:50;;;;;;;3.88;1.02;;;25.70;41.50;;;;;;5052537;28;20025;-53
2022/07/28 03:52:17;;;;;;;1.80;0.93;;;25.70;41.50;;;;;;5052798;28;20498;-42
2022/07/28 03:54:43;;;;;;;3.05;1.17;;;25.70;41.50;;;;;;5057526;28;20065;-42
2022/07/28 03:57:09;;;;;;;5.20;1.42;;;25.70;41.50;;;;;;5051562;28;20032;-42
2022/07/28 03:59:35;;;;;;;2.50;1.10;;;25.70;41.50;;;;;;5056080;28;20029;-42
2022/07/28 04:02:00;;;;;;;1.90;0.82;;;25.70;41.60;;;;;;5053906;28;20462;-42
2022/07/28 04:04:27;;;;;;;2.55;1.00;;;25.70;41.60;;;;;;5052795;28;20458;-43
2022/07/28 04:06:52;;;;;;;2.75;1.20;;;25.70;41.50;;;;;;5050758;28;20035;-46
2022/07/28 04:09:18;;;;;;;2.38;1.25;;;25.70;41.60;;;;;;5039294;28;20049;-42
2022/07/28 04:11:45;;;;;;;3.15;1.10;;;25.70;41.60;;;;;;5036060;28;20124;-43
2022/07/28 04:14:10;;;;;;;1.75;1.10;;;25.60;41.50;;;;;;5032647;28;20136;-42
2022/07/28 04:16:36;;;;;;;1.77;1.25;;;25.30;41.60;;;;;;5036080;28;20475;-52
2022/07/28 04:19:01;;;;;;;3.40;1.38;;;24.90;42.30;;;;;;5030293;28;20464;-45
2022/07/28 04:21:27;;;;;;;5.15;1.40;;;24.60;42.60;;;;;;5037829;28;20132;-49
2022/07/28 04:23:53;;;;;;;2.45;1.30;;;24.50;42.90;;;;;;5028137;28;20029;-42
2022/07/28 04:26:18;;;;;;;2.55;1.20;;;24.40;43.40;;;;;;5031650;28;20069;-42
2022/07/28 04:28:44;;;;;;;2.53;1.20;;;24.30;43.80;;;;;;5032890;28;20025;-42
2022/07/28 04:31:10;;;;;;;3.83;0.93;;;24.20;44.10;;;;;;5029725;28;20029;-46
2022/07/28 04:33:36;;;;;;;3.15;1.08;;;24.10;44.20;;;;;;5032597;28;20433;-45
2022/07/28 04:36:02;;;;;;;5.47;2.35;;;24.00;44.30;;;;;;5033858;28;20048;-42
2022/07/28 04:38:28;;;;;;;2.78;1.23;;;24.00;44.40;;;;;;5030499;28;20443;-41
2022/07/28 04:40:54;;;;;;;3.28;1.40;;;24.00;44.50;;;;;;5030491;28;20137;-42
2022/07/28 04:43:20;;;;;;;3.22;1.33;;;24.10;44.60;;;;;;5030759;28;20043;-42
2022/07/28 04:45:49;;;;;;;3.08;1.20;;;24.00;44.80;;;;;;5032609;28;20473;-47
2022/07/28 04:48:15;;;;;;;3.92;1.23;;;24.00;44.90;;;;;;5032703;28;20505;-42
2022/07/28 04:50:43;;;;;;;2.47;1.20;;;23.90;45.00;;;;;;5031114;28;20033;-45
2022/07/28 04:53:09;;;;;;;5.93;1.30;;;23.90;45.30;;;;;;5028866;28;20037;-42
2022/07/28 04:55:37;;;;;;;3.83;1.55;;;23.90;45.70;;;;;;5026622;28;20466;-42
2022/07/28 04:58:03;;;;;;;4.00;1.48;;;23.90;45.50;;;;;;5031698;28;20843;-43
2022/07/28 05:00:28;;;;;;;2.90;1.30;;;23.80;45.50;;;;;;5035920;28;20025;-44
2022/07/28 05:02:57;;;;;;;4.13;1.30;;;23.80;45.50;;;;;;5033079;28;20025;-46
2022/07/28 05:05:23;;;;;;;7.25;1.70;;;23.80;45.40;;;;;;5036143;28;20029;-45
2022/07/28 05:07:48;;;;;;;2.65;1.27;;;23.80;45.00;;;;;;5031230;28;20088;-46
2022/07/28 05:10:14;;;;;;;5.60;1.52;;;23.80;45.30;;;;;;5048548;28;20091;-43
2022/07/28 05:12:40;;;;;;;2.63;1.33;;;23.80;45.30;;;;;;5058527;28;20029;-45
2022/07/28 05:15:06;;;;;;;4.82;2.40;;;23.80;45.30;;;;;;5052953;28;20040;-42
2022/07/28 05:17:32;;;;;;;3.50;1.65;;;24.00;45.10;;;;;;5051402;28;20394;-45
2022/07/28 05:19:58;;;;;;;4.82;1.10;;;24.30;44.90;;;;;;5060393;28;20021;-44
2022/07/28 05:22:23;;;;;;;3.22;1.50;;;24.40;44.50;;;;;;5055524;28;20029;-44
2022/07/28 05:24:49;;;;;;;4.25;1.10;;;24.50;44.10;;;;;;5057265;28;20033;-52
2022/07/28 05:27:15;;;;;;;3.22;1.55;;;24.60;44.00;;;;;;5052731;28;20072;-44
2022/07/28 05:29:40;;;;;;;3.88;1.83;;;24.70;44.20;;;;;;5056318;28;20486;-45
2022/07/28 05:32:07;;;;;;;3.85;1.05;;;24.70;43.90;;;;;;5058842;28;20036;-51
2022/07/28 05:34:33;;;;;;;4.05;1.50;;;24.70;43.80;;;;;;5049867;28;20025;-47
2022/07/28 05:37:02;;;;;;;3.55;1.05;;;24.80;43.70;;;;;;5055875;28;20374;-46
2022/07/28 05:39:31;;;;;;;1.10;0.88;;;24.70;43.70;;;;;;5057214;28;20032;-44
2022/07/28 05:41:58;;;;;;;5.35;1.40;;;24.70;43.80;;;;;;5054840;28;20025;-46
2022/07/28 05:44:23;;;;;;;3.65;1.92;;;24.70;43.80;;;;;;5060541;28;20371;-49
2022/07/28 05:46:49;;;;;;;3.55;1.40;;;24.80;43.80;;;;;;5046302;28;20021;-43
2022/07/28 05:49:15;;;;;;;3.25;1.30;;;24.80;44.00;;;;;;5047155;28;20428;-44
2022/07/28 05:51:40;;;;;;;4.60;1.02;;;24.80;44.00;;;;;;5060279;28;20035;-45
2022/07/28 05:54:06;;;;;;;3.50;1.70;;;24.80;44.10;;;;;;5051022;28;20024;-42
2022/07/28 05:56:31;;;;;;;5.30;1.45;;;24.80;44.10;;;;;;5054076;28;20082;-43
2022/07/28 05:58:57;;;;;;;3.58;1.30;;;24.80;44.00;;;;;;5053499;28;20033;-43
2022/07/28 06:01:24;;;;;;;3.15;1.38;;;24.80;44.10;;;;;;5060400;28;20025;-42
2022/07/28 06:03:51;;;;;;;4.75;1.50;;;24.80;44.00;;;;;;5052848;28;20036;-53
2022/07/28 06:06:18;;;;;;;6.43;1.52;;;24.90;44.00;;;;;;5051690;28;20035;-46
2022/07/28 06:08:45;;;;;;;2.47;1.23;;;24.80;44.20;;;;;;5051115;28;20052;-43
2022/07/28 06:11:15;;;;;;;4.90;1.40;;;24.80;44.10;;;;;;5052143;28;20033;-43
2022/07/28 06:13:41;;;;;;;4.13;1.08;;;24.90;44.10;;;;;;5054393;28;20056;-43
2022/07/28 06:16:07;;;;;;;3.45;1.52;;;24.90;44.20;;;;;;5055711;28;20080;-43
2022/07/28 06:18:33;;;;;;;3.08;1.13;;;24.90;44.30;;;;;;5053879;28;20418;-45
2022/07/28 06:20:59;;;;;;;2.80;1.20;;;24.90;44.30;;;;;;5051528;28;20052;-46
2022/07/28 06:23:24;;;;;;;5.70;1.50;;;24.90;44.60;;;;;;5056964;28;20068;-43
2022/07/28 06:25:51;;;;;;;3.53;1.20;;;24.90;44.40;;;;;;5058602;28;20037;-54
2022/07/28 06:28:19;;;;;;;2.88;1.42;;;24.90;44.30;;;;;;5050957;28;20082;-43
2022/07/28 06:30:47;;;;;;;7.68;1.45;;;24.90;44.50;;;;;;5050307;28;20059;-45
2022/07/28 06:33:13;;;;;;;2.72;1.42;;;24.90;44.50;;;;;;5056000;28;20029;-44
2022/07/28 06:35:39;;;;;;;3.05;1.50;;;24.90;44.60;;;;;;5050146;28;20374;-44
2022/07/28 06:38:05;;;;;;;4.25;1.60;;;24.90;44.80;;;;;;5034884;28;20111;-44
2022/07/28 06:40:31;;;;;;;3.45;1.40;;;24.90;45.00;;;;;;5054669;28;20031;-51
2022/07/28 06:42:56;;;;;;;4.13;1.60;;;24.90;45.10;;;;;;5056783;28;20404;-50
2022/07/28 06:45:22;;;;;;;5.03;1.63;;;24.90;45.10;;;;;;5047671;28;20393;-47
2022/07/28 06:47:49;;;;;;;4.70;1.70;;;25.00;45.30;;;;;;5050857;28;20473;-44
2022/07/28 06:50:15;;;;;;;4.25;2.25;;;25.00;45.50;;;;;;5059038;28;20111;-46
2022/07/28 06:52:40;;;;;;;4.55;2.92;;;25.00;45.70;;;;;;5058940;28;20128;-47
2022/07/28 06:55:06;;;;;;;4.88;2.50;;;25.00;45.80;;;;;;5054578;28;20094;-45
2022/07/28 06:57:32;;;;;;;3.15;1.80;;;25.00;45.80;;;;;;5055348;28;20033;-47
2022/07/28 06:59:59;;;;;;;4.20;2.20;;;25.00;46.00;;;;;;5055261;28;20050;-51
2022/07/28 07:02:24;;;;;;;6.95;2.33;;;25.00;46.00;;;;;;5057623;28;20021;-43
2022/07/28 07:04:51;;;;;;;3.30;2.10;;;25.00;46.10;;;;;;5058627;28;20033;-43
2022/07/28 07:07:17;;;;;;;5.32;2.03;;;25.00;46.00;;;;;;5061700;28;20029;-41
2022/07/28 07:09:42;;;;;;;4.80;2.20;;;25.00;46.20;;;;;;5037334;28;20060;-43
2022/07/28 07:12:08;;;;;;;3.38;2.30;;;25.00;46.20;;;;;;5030961;28;20100;-43
2022/07/28 07:14:34;;;;;;;3.83;1.83;;;25.10;46.20;;;;;;5011596;28;20025;-43
2022/07/28 07:16:59;;;;;;;2.60;2.00;;;25.10;46.30;;;;;;5029764;28;20029;-42
2022/07/28 07:19:25;;;;;;;4.18;1.90;;;25.10;46.30;;;;;;5032699;28;20061;-43
2022/07/28 07:21:51;;;;;;;3.92;2.00;;;25.10;46.40;;;;;;5030230;28;20463;-54
2022/07/28 07:24:16;;;;;;;3.97;2.08;;;25.00;46.50;;;;;;5030686;28;20033;-45
2022/07/28 07:26:42;;;;;;;4.85;1.90;;;25.10;46.70;;;;;;5031008;28;20057;-42
2022/07/28 07:29:08;;;;;;;2.85;2.00;;;25.10;46.80;;;;;;5030008;28;20029;-43
2022/07/28 07:31:35;;;;;;;3.95;2.20;;;25.10;46.90;;;;;;5031058;28;20111;-43
2022/07/28 07:34:01;;;;;;;2.92;2.28;;;25.10;46.80;;;;;;5028978;28;20038;-43
2022/07/28 07:36:27;;;;;;;5.38;2.55;;;25.10;46.90;;;;;;5030223;28;20439;-49
2022/07/28 07:38:53;;;;;;;3.58;2.25;;;25.20;47.00;;;;;;5030660;28;20033;-53
2022/07/28 07:41:18;;;;;;;6.00;3.13;;;25.20;47.00;;;;;;5029790;28;20025;-42
2022/07/28 07:43:45;;;;;;;4.05;2.42;;;25.20;47.20;;;;;;5030408;28;20057;-43
2022/07/28 07:46:11;;;;;;;6.18;3.22;;;25.20;47.20;;;;;;5029676;28;20036;-43
2022/07/28 07:48:36;;;;;;;6.20;2.67;;;25.20;47.30;;;;;;5031834;28;20030;-43
2022/07/28 07:51:03;;;;;;;5.38;2.80;;;25.20;47.50;;;;;;5029186;28;20108;-43
2022/07/28 07:53:28;;;;;;;4.35;2.42;;;25.20;47.60;;;;;;5031780;28;20160;-42
2022/07/28 07:55:54;;;;;;;3.92;2.88;;;25.20;47.60;;;;;;5030346;28;20105;-48
2022/07/28 07:58:20;;;;;;;8.13;3.75;;;25.20;47.60;;;;;;5030292;28;20026;-42
2022/07/28 08:00:45;;;;;;;4.88;2.45;;;25.30;47.80;;;;;;5031622;28;20025;-43
2022/07/28 08:03:13;;;;;;;3.35;2.10;;;25.30;48.00;;;;;;5028807;28;20128;-42
2022/07/28 08:05:38;;;;;;;5.07;2.40;;;25.30;47.80;;;;;;5030470;28;20111;-46
2022/07/28 08:08:04;;;;;;;3.70;2.50;;;25.30;47.70;;;;;;5028620;28;20420;-44
2022/07/28 08:10:30;;;;;;;3.85;2.53;;;25.30;47.80;;;;;;5039890;28;20061;-42
2022/07/28 08:12:56;;;;;;;4.90;3.00;;;25.40;48.00;;;;;;5034305;28;20038;-43
2022/07/28 08:15:21;;;;;;;5.25;2.72;;;25.40;48.10;;;;;;5036748;28;20092;-42
2022/07/28 08:17:47;;;;;;;4.97;3.00;;;25.40;48.00;;;;;;5032749;28;20451;-44
2022/07/28 08:20:12;;;;;;;3.28;2.60;;;25.40;48.10;;;;;;5047463;28;20017;-42
2022/07/28 08:22:48;;;;;;;4.72;2.70;;;25.40;48.30;;;;;;5014132;28;20037;-43
2022/07/28 08:25:14;;;;;;;3.15;2.45;;;25.40;48.40;;;;;;5033690;28;20175;-44
2022/07/28 08:27:42;;;;;;;4.78;2.72;;;25.40;48.40;;;;;;5040829;28;20517;-43
2022/07/28 08:30:09;;;;;;;3.75;2.33;;;25.40;48.50;;;;;;5036463;28;20480;-45
2022/07/28 08:32:35;;;;;;;3.47;2.92;;;25.40;48.50;;;;;;5038872;28;20100;-42
2022/07/28 08:35:00;;;;;;;3.75;2.33;;;25.50;48.60;;;;;;5031633;28;20116;-46
2022/07/28 08:37:26;;;;;;;3.42;2.35;;;25.50;48.60;;;;;;5033986;28;20045;-42
2022/07/28 08:39:52;;;;;;;4.55;2.75;;;25.50;48.70;;;;;;5031259;28;20050;-53
2022/07/28 08:42:24;;;;;;;5.35;2.33;;;25.50;48.70;;;;;;5039972;28;20498;-43
2022/07/28 08:45:00;;;;;;;3.75;2.65;;;25.60;48.70;;;;;;5035622;28;20466;-45
2022/07/28 08:47:29;;;;;;;5.10;3.22;;;25.60;48.90;;;;;;5015207;28;20040;-43
2022/07/28 08:49:58;;;;;;;4.05;2.67;;;25.60;49.00;;;;;;5040825;28;20462;-54
2022/07/28 08:52:27;;;;;;;3.03;2.40;;;25.60;48.90;;;;;;5032129;28;20120;-43
2022/07/28 08:54:55;;;;;;;5.10;2.50;;;25.60;49.10;;;;;;5036345;28;20127;-45
2022/07/28 08:57:33;;;;;;;4.18;2.70;;;25.60;49.30;;;;;;5035365;28;20083;-44
2022/07/28 08:59:59;;;;;;;4.82;2.90;;;25.60;49.20;;;;;;5037129;28;20032;-42
2022/07/28 09:02:26;;;;;;;5.60;2.58;;;25.60;49.30;;;;;;5038865;28;20037;-43
2022/07/28 09:04:57;;;;;;;8.15;2.65;;;25.60;49.20;;;;;;5025037;28;20041;-54
2022/07/28 09:07:22;;;;;;;3.13;2.40;;;25.60;49.50;;;;;;5035448;28;20036;-43
2022/07/28 09:09:49;;;;;;;3.60;2.83;;;25.60;49.60;;;;;;5049554;28;20065;-43
2022/07/28 09:12:15;;;;;;;5.28;2.92;;;25.70;49.50;;;;;;5053110;28;20024;-47
2022/07/28 09:14:41;;;;;;;3.60;2.90;;;25.70;49.60;;;;;;5053472;28;20394;-42
2022/07/28 09:17:07;;;;;;;4.88;2.83;;;25.70;49.70;;;;;;5049496;28;20037;-44
2022/07/28 09:19:33;;;;;;;3.72;3.20;;;25.70;49.70;;;;;;5057940;28;20336;-42
2022/07/28 09:21:59;;;;;;;4.43;2.58;;;25.70;49.70;;;;;;5054461;28;20051;-43
2022/07/28 09:24:51;;;;;;;4.97;2.80;;;25.80;49.80;;;;;;5058401;28;20110;-42
2022/07/28 09:27:16;;;;;;;;;;;25.80;49.80;;;;;;5055426;28;20044;-43
2022/07/28 09:29:47;;;;;;;3.83;2.97;;;25.80;49.90;;;;;;5047616;28;20281;-47
2022/07/28 09:32:15;;;;;;;3.60;2.72;;;25.80;49.70;;;;;;5053100;28;20649;-42
2022/07/28 09:34:46;;;;;;;5.40;3.10;;;25.80;49.70;;;;;;5052299;28;20065;-42
2022/07/28 09:37:24;;;;;;;6.88;3.28;;;25.80;49.80;;;;;;5051221;28;20079;-43
2022/07/28 09:39:51;;;;;;;6.95;3.58;;;25.80;49.80;;;;;;5052769;28;20029;-43
2022/07/28 09:42:17;;;;;;;7.43;3.40;;;25.80;49.70;;;;;;5056618;28;20039;-42
2022/07/28 09:44:44;;;;;;;5.38;2.90;;;25.80;49.80;;;;;;5057133;28;20032;-44
2022/07/28 09:47:26;;;;;;;6.05;2.60;;;25.90;49.90;;;;;;5050454;28;20035;-43
2022/07/28 09:49:53;;;;;;;2.95;2.63;;;25.90;50.00;;;;;;5052596;28;20025;-51
2022/07/28 09:52:37;;;;;;;3.28;2.65;;;25.90;49.80;;;;;;5056354;28;20025;-43
2022/07/28 09:55:06;;;;;;;6.95;2.67;;;25.90;49.60;;;;;;5053609;28;20047;-44
2022/07/28 09:57:34;;;;;;;5.28;3.35;;;26.00;49.60;;;;;;5050244;28;20037;-43
2022/07/28 09:59:59;;;;;;;5.05;3.10;;;26.00;49.80;;;;;;5054641;28;20029;-42
2022/07/28 10:02:32;;;;;;;4.00;2.60;;;26.00;49.60;;;;;;5053833;28;20469;-42
2022/07/28 10:04:59;;;;;;;5.18;2.83;;;26.00;49.60;;;;;;5048957;28;20033;-43
2022/07/28 10:07:28;;;;;;;4.22;2.92;;;26.00;49.60;;;;;;5058631;28;20063;-43
2022/07/28 10:10:03;;;;;;;5.20;3.00;;;26.00;49.60;;;;;;5028324;28;20049;-54
2022/07/28 10:12:36;;;;;;;6.45;2.80;;;26.00;49.40;;;;;;5017316;28;20462;-43
2022/07/28 10:18:01;;;;;;;3.70;2.75;;;26.00;50.10;;;;;;5032556;28;20861;-42
2022/07/28 10:20:28;;;;;;;3.47;3.00;;;26.00;49.80;;;;;;5034584;28;20056;-45
2022/07/28 10:23:05;;;;;;;3.92;2.40;;;26.00;49.70;;;;;;5033358;28;20034;-54
2022/07/28 10:25:33;;;;;;;5.22;3.10;;;26.00;49.70;;;;;;5034742;28;20040;-49
2022/07/28 10:28:00;;;;;;;4.60;2.83;;;26.10;49.70;;;;;;5035829;28;20038;-46
2022/07/28 10:30:33;;;;;;;3.50;2.30;;;26.10;49.50;;;;;;5040923;28;20508;-42
2022/07/28 10:33:01;;;;;;;5.70;2.72;;;26.10;49.60;;;;;;5035696;28;20536;-42
2022/07/28 10:35:28;;;;;;;4.53;3.22;;;26.20;49.90;;;;;;5039136;28;20041;-44
2022/07/28 10:38:03;;;;;;;5.00;3.22;;;26.20;50.20;;;;;;5039960;28;20082;-53
2022/07/28 10:40:34;;;;;;;3.70;3.20;;;26.30;51.00;;;;;;5040403;28;20032;-42
2022/07/28 10:43:00;;;;;;;4.97;2.85;;;26.40;50.10;;;;;;5034676;28;20021;-43
2022/07/28 10:45:26;;;;;;;5.03;3.03;;;26.50;50.00;;;;;;5034587;28;20479;-44
2022/07/28 10:47:53;;;;;;;3.40;2.70;;;26.60;49.90;;;;;;5037028;28;20033;-41
2022/07/28 10:50:20;;;;;;;5.78;2.70;;;26.60;49.80;;;;;;5038708;28;20119;-42
2022/07/28 10:52:47;;;;;;;4.03;2.50;;;26.60;49.60;;;;;;5040167;28;20087;-43
2022/07/28 10:55:34;;;;;;;3.95;2.40;;;26.60;49.40;;;;;;5033755;28;20524;-43
2022/07/28 10:58:10;;;;;;;4.28;2.67;;;26.70;49.40;;;;;;5036852;28;20774;-42
2022/07/28 11:00:45;;;;;;;2.85;2.53;;;26.60;49.30;;;;;;5048051;28;20052;-48
2022/07/28 11:03:44;;;;;;;6.75;2.88;;;26.60;49.40;;;;;;5035444;28;20032;-44
2022/07/28 11:06:27;;;;;;;6.20;2.70;;;26.60;49.10;;;;;;5037221;28;20049;-42
2022/07/28 11:09:12;;;;;;;2.80;2.50;;;26.60;49.30;;;;;;5041014;28;20053;-42
2022/07/28 11:11:42;;;;;;;6.28;2.78;;;26.60;49.30;;;;;;5058059;28;20369;-51
2022/07/28 11:14:24;;;;;;;5.57;3.00;;;26.70;49.40;;;;;;5056838;28;20385;-48
2022/07/28 11:16:59;;;;;;;;;;;26.70;49.30;;;;;;5058227;28;20043;-42
2022/07/28 11:19:24;;;;;;;4.38;3.17;;;26.70;49.30;;;;;;5049047;28;19909;-42
2022/07/28 11:22:16;;;;;;;3.85;2.55;;;26.70;49.30;;;;;;5056296;28;20048;-43
2022/07/28 11:25:07;;;;;;;3.22;2.53;;;26.70;49.40;;;;;;5056551;28;20025;-42
2022/07/28 11:27:44;;;;;;;;;;;26.70;49.40;;;;;;5050153;28;20033;-54
2022/07/28 11:30:28;;;;;;;3.88;2.70;;;26.70;49.40;;;;;;5058358;28;20415;-43
2022/07/28 11:32:53;;;;;;;4.28;2.70;;;26.70;49.50;;;;;;5060688;28;20107;-45
2022/07/28 11:35:26;;;;;;;3.00;2.50;;;26.70;49.50;;;;;;5062752;28;20120;-43
2022/07/28 11:38:01;;;;;;;4.03;2.35;;;26.70;49.40;;;;;;5063614;28;20033;-42
2022/07/28 11:40:30;;;;;;;3.15;2.42;;;26.70;49.40;;;;;;5051180;28;20035;-42
2022/07/28 11:43:20;;;;;;;3.85;2.55;;;26.60;50.10;;;;;;5064346;28;20099;-54
2022/07/28 11:45:51;;;;;;;4.93;2.78;;;26.60;49.60;;;;;;5053810;28;20029;-44
2022/07/28 11:48:22;;;;;;;3.03;2.05;;;26.60;49.90;;;;;;5054539;28;20866;-42
2022/07/28 11:51:02;;;;;;;4.22;3.00;;;26.60;50.20;;;;;;5061592;28;20037;-42
2022/07/28 11:53:39;;;;;;;3.45;2.53;;;26.60;50.50;;;;;;5051983;28;20075;-42
2022/07/28 11:56:10;;;;;;;4.38;2.70;;;26.60;50.00;;;;;;5053747;28;20137;-44
2022/07/28 11:58:37;;;;;;;3.33;2.00;;;26.60;50.20;;;;;;5058650;28;20030;-44
2022/07/28 12:01:09;;;;;;;4.13;2.53;;;26.60;50.20;;;;;;5057696;28;20024;-43
2022/07/28 12:03:35;;;;;;;3.78;2.30;;;26.60;50.40;;;;;;5056318;28;20029;-42
2022/07/28 12:06:00;;;;;;;4.32;2.85;;;26.70;50.10;;;;;;5049723;28;20040;-42
2022/07/28 12:08:26;;;;;;;3.65;2.50;;;26.60;50.10;;;;;;5066242;28;20045;-43
2022/07/28 12:10:54;;;;;;;3.70;2.40;;;26.60;50.20;;;;;;5056029;28;20387;-43
2022/07/28 12:13:25;;;;;;;5.82;3.15;;;26.70;50.40;;;;;;5053097;28;20064;-42
2022/07/28 12:15:51;;;;;;;4.55;2.30;;;26.60;50.20;;;;;;5055735;28;20063;-43
2022/07/28 12:18:17;;;;;;;4.30;2.28;;;26.60;50.00;;;;;;5048921;28;20174;-43
2022/07/28 12:20:46;;;;;;;4.50;2.47;;;26.70;50.30;;;;;;5053334;28;20036;-43
2022/07/28 12:23:12;;;;;;;4.75;2.72;;;26.60;50.30;;;;;;5042026;28;21030;-43
2022/07/28 12:25:46;;;;;;;5.25;2.83;;;26.60;50.20;;;;;;5054488;28;20116;-49
2022/07/28 12:28:16;;;;;;;3.70;2.45;;;26.70;50.30;;;;;;5059842;28;20059;-42
2022/07/28 12:30:42;;;;;;;3.97;2.50;;;26.70;50.40;;;;;;5049672;28;20469;-52
2022/07/28 12:33:19;;;;;;;2.28;1.90;;;26.60;50.20;;;;;;5051654;28;20104;-41
2022/07/28 12:35:47;;;;;;;3.53;2.40;;;26.60;50.60;;;;;;5050097;28;20083;-41
2022/07/28 12:38:13;;;;;;;5.70;2.63;;;26.70;50.40;;;;;;5057253;28;20075;-43
2022/07/28 12:40:39;;;;;;;2.40;2.15;;;26.70;50.80;;;;;;5055379;28;20029;-42
2022/07/28 12:43:05;;;;;;;3.15;2.53;;;26.70;50.40;;;;;;5050282;28;20119;-42
2022/07/28 12:45:32;;;;;;;4.85;2.63;;;26.70;50.50;;;;;;5055135;28;20029;-42
2022/07/28 12:48:07;;;;;;;3.00;2.00;;;26.70;50.50;;;;;;5052049;28;20037;-53
2022/07/28 12:50:37;;;;;;;4.20;2.60;;;26.70;50.40;;;;;;5059055;28;20466;-42
2022/07/28 12:53:07;;;;;;;4.28;2.63;;;26.70;50.60;;;;;;5058433;28;20122;-42
2022/07/28 12:55:33;;;;;;;4.70;2.67;;;26.70;50.60;;;;;;5049991;28;20067;-42
2022/07/28 12:58:00;;;;;;;2.95;1.98;;;26.70;50.50;;;;;;5054571;28;20668;-53
2022/07/28 13:00:29;;;;;;;3.05;2.20;;;26.70;50.70;;;;;;5052541;28;20057;-42
2022/07/28 13:02:58;;;;;;;4.07;2.15;;;26.70;50.60;;;;;;5059206;28;20055;-42
2022/07/28 13:06:20;;;;;;;2.83;2.00;;;26.70;50.60;;;;;;5063955;28;20033;-44